sensor_id;sensor_type;location;lat;lon;timestamp;P1;durP1;ratioP1;P2;durP2;ratioP2
79243;SDS011;68672;42.676;23.356;2023-04-25T00:01:20;3.17;;;2.65;;
79243;SDS011;68672;42.676;23.356;2023-04-25T00:03:46;3.70;;;2.40;;
79243;SDS011;68672;42.676;23.356;2023-04-25T00:06:12;3.72;;;2.63;;
79243;SDS011;68672;42.676;23.356;2023-04-25T00:08:38;3.10;;;2.72;;
79243;SDS011;68672;42.676;23.356;2023-04-25T00:11:04;3.88;;;2.33;;
79243;SDS011;68672;42.676;23.356;2023-04-25T00:13:30;3.45;;;2.20;;
79243;SDS011;68672;42.676;23.356;2023-04-25T00:15:55;3.03;;;2.42;;
79243;SDS011;68672;42.676;23.356;2023-04-25T00:18:27;3.90;;;3.35;;
79243;SDS011;68672;42.676;23.356;2023-04-25T00:20:58;3.65;;;2.75;;
79243;SDS011;68672;42.676;23.356;2023-04-25T00:23:23;3.78;;;2.78;;
79243;SDS011;68672;42.676;23.356;2023-04-25T00:25:49;4.00;;;2.70;;
79243;SDS011;68672;42.676;23.356;2023-04-25T00:28:15;4.38;;;3.30;;
79243;SDS011;68672;42.676;23.356;2023-04-25T00:30:41;3.08;;;2.60;;
79243;SDS011;68672;42.676;23.356;2023-04-25T00:33:07;4.32;;;2.40;;
79243;SDS011;68672;42.676;23.356;2023-04-25T00:35:35;3.38;;;2.67;;
79243;SDS011;68672;42.676;23.356;2023-04-25T00:38:01;5.05;;;2.83;;
79243;SDS011;68672;42.676;23.356;2023-04-25T00:40:27;3.70;;;2.75;;
79243;SDS011;68672;42.676;23.356;2023-04-25T00:42:53;3.13;;;2.65;;
79243;SDS011;68672;42.676;23.356;2023-04-25T00:45:21;5.30;;;3.10;;
79243;SDS011;68672;42.676;23.356;2023-04-25T00:47:51;3.85;;;2.58;;
79243;SDS011;68672;42.676;23.356;2023-04-25T00:50:17;4.80;;;3.20;;
79243;SDS011;68672;42.676;23.356;2023-04-25T00:52:43;4.00;;;2.85;;
79243;SDS011;68672;42.676;23.356;2023-04-25T00:55:10;3.88;;;2.90;;
79243;SDS011;68672;42.676;23.356;2023-04-25T00:57:36;4.38;;;2.47;;
79243;SDS011;68672;42.676;23.356;2023-04-25T01:00:02;3.47;;;2.38;;
79243;SDS011;68672;42.676;23.356;2023-04-25T01:02:30;4.68;;;2.72;;
79243;SDS011;68672;42.676;23.356;2023-04-25T01:04:57;3.25;;;2.60;;
79243;SDS011;68672;42.676;23.356;2023-04-25T01:07:22;3.92;;;3.10;;
79243;SDS011;68672;42.676;23.356;2023-04-25T01:09:48;3.83;;;2.60;;
79243;SDS011;68672;42.676;23.356;2023-04-25T01:12:13;3.00;;;2.40;;
79243;SDS011;68672;42.676;23.356;2023-04-25T01:14:39;3.58;;;2.55;;
79243;SDS011;68672;42.676;23.356;2023-04-25T01:17:05;3.67;;;2.22;;
79243;SDS011;68672;42.676;23.356;2023-04-25T01:19:32;3.58;;;2.58;;
79243;SDS011;68672;42.676;23.356;2023-04-25T01:21:58;3.83;;;2.85;;
79243;SDS011;68672;42.676;23.356;2023-04-25T01:24:23;3.67;;;2.53;;
79243;SDS011;68672;42.676;23.356;2023-04-25T01:26:52;3.75;;;3.08;;
79243;SDS011;68672;42.676;23.356;2023-04-25T01:29:21;3.58;;;2.80;;
79243;SDS011;68672;42.676;23.356;2023-04-25T01:31:49;3.88;;;2.83;;
79243;SDS011;68672;42.676;23.356;2023-04-25T01:34:16;3.65;;;2.58;;
79243;SDS011;68672;42.676;23.356;2023-04-25T01:36:41;3.97;;;3.08;;
79243;SDS011;68672;42.676;23.356;2023-04-25T01:39:07;5.13;;;3.15;;
79243;SDS011;68672;42.676;23.356;2023-04-25T01:41:32;3.75;;;2.72;;
79243;SDS011;68672;42.676;23.356;2023-04-25T01:43:59;3.58;;;2.88;;
79243;SDS011;68672;42.676;23.356;2023-04-25T01:46:25;2.75;;;2.33;;
79243;SDS011;68672;42.676;23.356;2023-04-25T01:48:50;4.78;;;2.70;;
79243;SDS011;68672;42.676;23.356;2023-04-25T01:51:16;4.93;;;3.05;;
79243;SDS011;68672;42.676;23.356;2023-04-25T01:53:42;3.10;;;2.55;;
79243;SDS011;68672;42.676;23.356;2023-04-25T01:56:07;4.05;;;2.05;;
79243;SDS011;68672;42.676;23.356;2023-04-25T01:58:33;4.43;;;3.28;;
79243;SDS011;68672;42.676;23.356;2023-04-25T02:01:04;3.35;;;2.35;;
79243;SDS011;68672;42.676;23.356;2023-04-25T02:03:31;4.15;;;2.97;;
79243;SDS011;68672;42.676;23.356;2023-04-25T02:05:57;4.07;;;2.67;;
79243;SDS011;68672;42.676;23.356;2023-04-25T02:08:22;2.97;;;2.67;;
79243;SDS011;68672;42.676;23.356;2023-04-25T02:10:47;5.10;;;3.03;;
79243;SDS011;68672;42.676;23.356;2023-04-25T02:13:13;3.05;;;2.75;;
79243;SDS011;68672;42.676;23.356;2023-04-25T02:15:41;4.30;;;3.30;;
79243;SDS011;68672;42.676;23.356;2023-04-25T02:18:07;4.18;;;2.65;;
79243;SDS011;68672;42.676;23.356;2023-04-25T02:20:32;5.20;;;3.42;;
79243;SDS011;68672;42.676;23.356;2023-04-25T02:23:00;4.22;;;2.80;;
79243;SDS011;68672;42.676;23.356;2023-04-25T02:25:25;4.05;;;3.65;;
79243;SDS011;68672;42.676;23.356;2023-04-25T02:27:51;4.65;;;3.20;;
79243;SDS011;68672;42.676;23.356;2023-04-25T02:30:16;4.85;;;2.60;;
79243;SDS011;68672;42.676;23.356;2023-04-25T02:32:42;3.60;;;2.72;;
79243;SDS011;68672;42.676;23.356;2023-04-25T02:35:07;4.13;;;2.60;;
79243;SDS011;68672;42.676;23.356;2023-04-25T02:37:34;4.35;;;3.17;;
79243;SDS011;68672;42.676;23.356;2023-04-25T02:40:00;4.68;;;2.92;;
79243;SDS011;68672;42.676;23.356;2023-04-25T02:42:26;4.25;;;3.85;;
79243;SDS011;68672;42.676;23.356;2023-04-25T02:44:52;3.30;;;2.25;;
79243;SDS011;68672;42.676;23.356;2023-04-25T02:47:17;4.45;;;2.72;;
79243;SDS011;68672;42.676;23.356;2023-04-25T02:49:43;4.75;;;3.20;;
79243;SDS011;68672;42.676;23.356;2023-04-25T02:52:08;4.95;;;2.65;;
79243;SDS011;68672;42.676;23.356;2023-04-25T02:54:34;5.10;;;3.80;;
79243;SDS011;68672;42.676;23.356;2023-04-25T02:57:02;4.28;;;3.17;;
79243;SDS011;68672;42.676;23.356;2023-04-25T02:59:28;4.45;;;2.88;;
79243;SDS011;68672;42.676;23.356;2023-04-25T03:01:53;3.80;;;3.30;;
79243;SDS011;68672;42.676;23.356;2023-04-25T03:04:19;4.70;;;3.05;;
79243;SDS011;68672;42.676;23.356;2023-04-25T03:06:45;4.53;;;3.05;;
79243;SDS011;68672;42.676;23.356;2023-04-25T03:09:11;4.35;;;3.83;;
79243;SDS011;68672;42.676;23.356;2023-04-25T03:11:38;3.80;;;2.67;;
79243;SDS011;68672;42.676;23.356;2023-04-25T03:14:04;5.10;;;3.40;;
79243;SDS011;68672;42.676;23.356;2023-04-25T03:16:29;4.25;;;2.53;;
79243;SDS011;68672;42.676;23.356;2023-04-25T03:18:56;5.53;;;3.40;;
79243;SDS011;68672;42.676;23.356;2023-04-25T03:21:24;4.47;;;3.13;;
79243;SDS011;68672;42.676;23.356;2023-04-25T03:23:50;3.63;;;2.67;;
79243;SDS011;68672;42.676;23.356;2023-04-25T03:26:15;4.50;;;3.55;;
79243;SDS011;68672;42.676;23.356;2023-04-25T03:28:43;3.70;;;2.50;;
79243;SDS011;68672;42.676;23.356;2023-04-25T03:31:09;4.03;;;3.20;;
79243;SDS011;68672;42.676;23.356;2023-04-25T03:33:34;4.80;;;3.80;;
79243;SDS011;68672;42.676;23.356;2023-04-25T03:36:00;3.92;;;2.80;;
79243;SDS011;68672;42.676;23.356;2023-04-25T03:38:25;4.53;;;3.28;;
79243;SDS011;68672;42.676;23.356;2023-04-25T03:40:53;6.05;;;2.70;;
79243;SDS011;68672;42.676;23.356;2023-04-25T03:43:19;4.25;;;2.67;;
79243;SDS011;68672;42.676;23.356;2023-04-25T03:45:44;5.55;;;3.60;;
79243;SDS011;68672;42.676;23.356;2023-04-25T03:48:09;4.90;;;3.05;;
79243;SDS011;68672;42.676;23.356;2023-04-25T03:50:35;4.80;;;3.25;;
79243;SDS011;68672;42.676;23.356;2023-04-25T03:53:00;4.60;;;3.20;;
79243;SDS011;68672;42.676;23.356;2023-04-25T03:55:26;5.20;;;3.70;;
79243;SDS011;68672;42.676;23.356;2023-04-25T03:57:51;5.68;;;3.30;;
79243;SDS011;68672;42.676;23.356;2023-04-25T04:00:23;6.30;;;4.53;;
79243;SDS011;68672;42.676;23.356;2023-04-25T04:02:49;5.15;;;3.97;;
79243;SDS011;68672;42.676;23.356;2023-04-25T04:05:15;4.75;;;3.88;;
79243;SDS011;68672;42.676;23.356;2023-04-25T04:07:40;4.22;;;3.50;;
79243;SDS011;68672;42.676;23.356;2023-04-25T04:10:08;4.18;;;3.67;;
79243;SDS011;68672;42.676;23.356;2023-04-25T04:12:35;6.85;;;3.92;;
79243;SDS011;68672;42.676;23.356;2023-04-25T04:15:01;5.53;;;3.53;;
79243;SDS011;68672;42.676;23.356;2023-04-25T04:17:28;6.43;;;4.47;;
79243;SDS011;68672;42.676;23.356;2023-04-25T04:19:54;4.75;;;3.72;;
79243;SDS011;68672;42.676;23.356;2023-04-25T04:22:23;3.78;;;2.88;;
79243;SDS011;68672;42.676;23.356;2023-04-25T04:24:49;5.60;;;3.72;;
79243;SDS011;68672;42.676;23.356;2023-04-25T04:27:17;4.97;;;3.47;;
79243;SDS011;68672;42.676;23.356;2023-04-25T04:29:44;5.88;;;4.13;;
79243;SDS011;68672;42.676;23.356;2023-04-25T04:32:09;4.00;;;3.45;;
79243;SDS011;68672;42.676;23.356;2023-04-25T04:34:34;5.10;;;3.38;;
79243;SDS011;68672;42.676;23.356;2023-04-25T04:37:00;4.32;;;3.42;;
79243;SDS011;68672;42.676;23.356;2023-04-25T04:39:26;4.93;;;3.88;;
79243;SDS011;68672;42.676;23.356;2023-04-25T04:41:51;5.68;;;4.22;;
79243;SDS011;68672;42.676;23.356;2023-04-25T04:44:17;5.78;;;4.25;;
79243;SDS011;68672;42.676;23.356;2023-04-25T04:46:42;7.20;;;4.53;;
79243;SDS011;68672;42.676;23.356;2023-04-25T04:49:09;6.68;;;4.68;;
79243;SDS011;68672;42.676;23.356;2023-04-25T04:51:36;9.25;;;4.65;;
79243;SDS011;68672;42.676;23.356;2023-04-25T04:54:02;7.32;;;4.93;;
79243;SDS011;68672;42.676;23.356;2023-04-25T04:56:28;6.82;;;5.20;;
79243;SDS011;68672;42.676;23.356;2023-04-25T04:58:56;7.68;;;5.78;;
79243;SDS011;68672;42.676;23.356;2023-04-25T05:01:22;8.02;;;5.47;;
79243;SDS011;68672;42.676;23.356;2023-04-25T05:03:47;9.75;;;6.18;;
79243;SDS011;68672;42.676;23.356;2023-04-25T05:06:13;7.22;;;5.40;;
79243;SDS011;68672;42.676;23.356;2023-04-25T05:08:38;7.97;;;5.72;;
79243;SDS011;68672;42.676;23.356;2023-04-25T05:11:09;7.88;;;5.55;;
79243;SDS011;68672;42.676;23.356;2023-04-25T05:13:36;9.40;;;6.88;;
79243;SDS011;68672;42.676;23.356;2023-04-25T05:16:01;9.90;;;5.68;;
79243;SDS011;68672;42.676;23.356;2023-04-25T05:18:27;8.88;;;5.35;;
79243;SDS011;68672;42.676;23.356;2023-04-25T05:20:52;7.50;;;5.32;;
79243;SDS011;68672;42.676;23.356;2023-04-25T05:23:18;7.38;;;4.78;;
79243;SDS011;68672;42.676;23.356;2023-04-25T05:25:44;10.48;;;6.10;;
79243;SDS011;68672;42.676;23.356;2023-04-25T05:28:10;6.45;;;4.97;;
79243;SDS011;68672;42.676;23.356;2023-04-25T05:30:37;7.03;;;5.15;;
79243;SDS011;68672;42.676;23.356;2023-04-25T05:33:02;7.55;;;5.85;;
79243;SDS011;68672;42.676;23.356;2023-04-25T05:35:28;8.90;;;5.88;;
79243;SDS011;68672;42.676;23.356;2023-04-25T05:37:53;7.07;;;5.20;;
79243;SDS011;68672;42.676;23.356;2023-04-25T05:40:18;8.50;;;5.43;;
79243;SDS011;68672;42.676;23.356;2023-04-25T05:42:44;8.15;;;5.50;;
79243;SDS011;68672;42.676;23.356;2023-04-25T05:45:10;7.65;;;4.60;;
79243;SDS011;68672;42.676;23.356;2023-04-25T05:47:35;7.72;;;4.95;;
79243;SDS011;68672;42.676;23.356;2023-04-25T05:50:00;6.85;;;4.55;;
79243;SDS011;68672;42.676;23.356;2023-04-25T05:52:26;5.93;;;4.10;;
79243;SDS011;68672;42.676;23.356;2023-04-25T05:54:51;5.78;;;3.83;;
79243;SDS011;68672;42.676;23.356;2023-04-25T05:57:21;6.45;;;4.60;;
79243;SDS011;68672;42.676;23.356;2023-04-25T05:59:50;5.03;;;3.90;;
79243;SDS011;68672;42.676;23.356;2023-04-25T06:02:16;5.03;;;3.80;;
79243;SDS011;68672;42.676;23.356;2023-04-25T06:04:45;5.32;;;2.92;;
79243;SDS011;68672;42.676;23.356;2023-04-25T06:07:11;6.00;;;4.00;;
79243;SDS011;68672;42.676;23.356;2023-04-25T06:09:37;6.10;;;4.25;;
79243;SDS011;68672;42.676;23.356;2023-04-25T06:12:04;8.05;;;4.35;;
79243;SDS011;68672;42.676;23.356;2023-04-25T06:14:33;6.47;;;4.03;;
79243;SDS011;68672;42.676;23.356;2023-04-25T06:16:59;6.63;;;3.95;;
79243;SDS011;68672;42.676;23.356;2023-04-25T06:19:27;8.45;;;4.72;;
79243;SDS011;68672;42.676;23.356;2023-04-25T06:21:53;4.82;;;4.15;;
79243;SDS011;68672;42.676;23.356;2023-04-25T06:24:18;6.85;;;3.75;;
79243;SDS011;68672;42.676;23.356;2023-04-25T06:26:47;5.82;;;4.05;;
79243;SDS011;68672;42.676;23.356;2023-04-25T06:29:15;5.90;;;3.65;;
79243;SDS011;68672;42.676;23.356;2023-04-25T06:31:41;4.70;;;3.95;;
79243;SDS011;68672;42.676;23.356;2023-04-25T06:34:06;7.60;;;3.45;;
79243;SDS011;68672;42.676;23.356;2023-04-25T06:36:32;6.43;;;3.95;;
79243;SDS011;68672;42.676;23.356;2023-04-25T06:38:57;4.70;;;3.28;;
79243;SDS011;68672;42.676;23.356;2023-04-25T06:41:22;5.32;;;3.50;;
79243;SDS011;68672;42.676;23.356;2023-04-25T06:43:48;4.22;;;3.00;;
79243;SDS011;68672;42.676;23.356;2023-04-25T06:46:13;4.97;;;3.08;;
79243;SDS011;68672;42.676;23.356;2023-04-25T06:48:38;5.93;;;4.05;;
79243;SDS011;68672;42.676;23.356;2023-04-25T06:51:04;5.13;;;3.45;;
79243;SDS011;68672;42.676;23.356;2023-04-25T06:53:30;4.60;;;3.08;;
79243;SDS011;68672;42.676;23.356;2023-04-25T06:55:55;5.55;;;3.83;;
79243;SDS011;68672;42.676;23.356;2023-04-25T06:58:20;6.20;;;3.63;;
79243;SDS011;68672;42.676;23.356;2023-04-25T07:00:46;4.30;;;3.40;;
79243;SDS011;68672;42.676;23.356;2023-04-25T07:03:11;5.43;;;3.75;;
79243;SDS011;68672;42.676;23.356;2023-04-25T07:05:39;5.90;;;3.60;;
79243;SDS011;68672;42.676;23.356;2023-04-25T07:08:05;6.05;;;3.30;;
79243;SDS011;68672;42.676;23.356;2023-04-25T07:10:30;7.03;;;3.65;;
79243;SDS011;68672;42.676;23.356;2023-04-25T07:12:56;3.97;;;3.15;;
79243;SDS011;68672;42.676;23.356;2023-04-25T07:15:21;4.93;;;3.83;;
79243;SDS011;68672;42.676;23.356;2023-04-25T07:17:47;6.03;;;4.10;;
79243;SDS011;68672;42.676;23.356;2023-04-25T07:20:12;5.82;;;3.88;;
79243;SDS011;68672;42.676;23.356;2023-04-25T07:22:37;7.38;;;4.68;;
79243;SDS011;68672;42.676;23.356;2023-04-25T07:25:06;5.40;;;4.05;;
79243;SDS011;68672;42.676;23.356;2023-04-25T07:27:32;7.70;;;3.83;;
79243;SDS011;68672;42.676;23.356;2023-04-25T07:29:57;5.75;;;3.15;;
79243;SDS011;68672;42.676;23.356;2023-04-25T07:32:23;5.50;;;3.83;;
79243;SDS011;68672;42.676;23.356;2023-04-25T07:34:48;5.60;;;4.10;;
79243;SDS011;68672;42.676;23.356;2023-04-25T07:37:14;7.32;;;4.47;;
79243;SDS011;68672;42.676;23.356;2023-04-25T07:39:39;6.20;;;4.20;;
79243;SDS011;68672;42.676;23.356;2023-04-25T07:42:05;6.55;;;4.22;;
79243;SDS011;68672;42.676;23.356;2023-04-25T07:44:33;4.85;;;3.88;;
79243;SDS011;68672;42.676;23.356;2023-04-25T07:47:06;5.80;;;4.15;;
79243;SDS011;68672;42.676;23.356;2023-04-25T07:49:33;5.45;;;4.40;;
79243;SDS011;68672;42.676;23.356;2023-04-25T07:51:59;4.03;;;3.30;;
79243;SDS011;68672;42.676;23.356;2023-04-25T07:54:25;7.45;;;3.50;;
79243;SDS011;68672;42.676;23.356;2023-04-25T07:56:54;6.65;;;3.75;;
79243;SDS011;68672;42.676;23.356;2023-04-25T07:59:20;5.45;;;3.83;;
79243;SDS011;68672;42.676;23.356;2023-04-25T08:01:46;4.95;;;3.65;;
79243;SDS011;68672;42.676;23.356;2023-04-25T08:06:59;4.70;;;3.30;;
79243;SDS011;68672;42.676;23.356;2023-04-25T08:09:25;6.75;;;3.72;;
79243;SDS011;68672;42.676;23.356;2023-04-25T08:11:50;5.60;;;4.07;;
79243;SDS011;68672;42.676;23.356;2023-04-25T08:14:16;4.50;;;3.42;;
79243;SDS011;68672;42.676;23.356;2023-04-25T08:16:41;4.60;;;3.15;;
79243;SDS011;68672;42.676;23.356;2023-04-25T08:19:07;4.70;;;3.95;;
79243;SDS011;68672;42.676;23.356;2023-04-25T08:21:32;6.28;;;4.15;;
79243;SDS011;68672;42.676;23.356;2023-04-25T08:23:58;4.15;;;3.70;;
79243;SDS011;68672;42.676;23.356;2023-04-25T08:26:24;5.13;;;3.13;;
79243;SDS011;68672;42.676;23.356;2023-04-25T08:28:50;4.88;;;3.72;;
79243;SDS011;68672;42.676;23.356;2023-04-25T08:31:15;4.55;;;3.60;;
79243;SDS011;68672;42.676;23.356;2023-04-25T08:33:41;3.92;;;3.03;;
79243;SDS011;68672;42.676;23.356;2023-04-25T08:36:07;3.22;;;2.92;;
79243;SDS011;68672;42.676;23.356;2023-04-25T08:38:32;3.47;;;2.90;;
79243;SDS011;68672;42.676;23.356;2023-04-25T08:41:01;3.58;;;3.03;;
79243;SDS011;68672;42.676;23.356;2023-04-25T08:43:27;6.75;;;3.15;;
79243;SDS011;68672;42.676;23.356;2023-04-25T08:46:00;4.50;;;3.67;;
79243;SDS011;68672;42.676;23.356;2023-04-25T08:48:28;5.15;;;3.35;;
79243;SDS011;68672;42.676;23.356;2023-04-25T08:50:57;3.28;;;2.70;;
79243;SDS011;68672;42.676;23.356;2023-04-25T08:53:28;8.57;;;5.00;;
79243;SDS011;68672;42.676;23.356;2023-04-25T08:55:55;7.88;;;5.38;;
79243;SDS011;68672;42.676;23.356;2023-04-25T08:58:22;6.38;;;5.18;;
79243;SDS011;68672;42.676;23.356;2023-04-25T09:00:48;9.85;;;4.88;;
79243;SDS011;68672;42.676;23.356;2023-04-25T09:03:16;5.75;;;5.10;;
79243;SDS011;68672;42.676;23.356;2023-04-25T09:05:42;7.80;;;5.68;;
79243;SDS011;68672;42.676;23.356;2023-04-25T09:08:07;8.65;;;5.43;;
79243;SDS011;68672;42.676;23.356;2023-04-25T09:10:33;6.35;;;4.72;;
79243;SDS011;68672;42.676;23.356;2023-04-25T09:13:09;6.70;;;5.13;;
79243;SDS011;68672;42.676;23.356;2023-04-25T09:15:53;5.35;;;4.00;;
79243;SDS011;68672;42.676;23.356;2023-04-25T09:18:33;5.13;;;3.50;;
79243;SDS011;68672;42.676;23.356;2023-04-25T09:21:06;5.97;;;3.83;;
79243;SDS011;68672;42.676;23.356;2023-04-25T09:23:40;4.32;;;3.83;;
79243;SDS011;68672;42.676;23.356;2023-04-25T09:26:15;5.55;;;3.53;;
79243;SDS011;68672;42.676;23.356;2023-04-25T09:28:42;4.10;;;3.67;;
79243;SDS011;68672;42.676;23.356;2023-04-25T09:31:23;4.93;;;3.65;;
79243;SDS011;68672;42.676;23.356;2023-04-25T09:34:00;5.20;;;3.15;;
79243;SDS011;68672;42.676;23.356;2023-04-25T09:36:26;7.20;;;4.43;;
79243;SDS011;68672;42.676;23.356;2023-04-25T09:38:56;6.03;;;3.83;;
79243;SDS011;68672;42.676;23.356;2023-04-25T09:41:24;5.80;;;4.28;;
79243;SDS011;68672;42.676;23.356;2023-04-25T09:43:50;7.82;;;4.88;;
79243;SDS011;68672;42.676;23.356;2023-04-25T09:46:16;6.63;;;4.50;;
79243;SDS011;68672;42.676;23.356;2023-04-25T09:48:49;6.00;;;3.58;;
79243;SDS011;68672;42.676;23.356;2023-04-25T09:51:16;3.80;;;2.90;;
79243;SDS011;68672;42.676;23.356;2023-04-25T09:53:44;4.97;;;3.50;;
79243;SDS011;68672;42.676;23.356;2023-04-25T09:56:16;4.10;;;3.35;;
79243;SDS011;68672;42.676;23.356;2023-04-25T09:58:43;5.38;;;3.45;;
79243;SDS011;68672;42.676;23.356;2023-04-25T10:01:09;3.85;;;3.38;;
79243;SDS011;68672;42.676;23.356;2023-04-25T10:19:30;5.35;;;4.10;;
79243;SDS011;68672;42.676;23.356;2023-04-25T10:25:01;4.57;;;3.42;;
79243;SDS011;68672;42.676;23.356;2023-04-25T10:27:31;3.83;;;2.17;;
79243;SDS011;68672;42.676;23.356;2023-04-25T10:30:15;3.88;;;1.40;;
79243;SDS011;68672;42.676;23.356;2023-04-25T10:32:41;1.60;;;1.25;;
79243;SDS011;68672;42.676;23.356;2023-04-25T10:35:11;2.08;;;1.42;;
79243;SDS011;68672;42.676;23.356;2023-04-25T10:38:00;2.50;;;1.60;;
79243;SDS011;68672;42.676;23.356;2023-04-25T10:40:38;1.83;;;1.30;;
79243;SDS011;68672;42.676;23.356;2023-04-25T10:46:03;2.05;;;1.50;;
79243;SDS011;68672;42.676;23.356;2023-04-25T10:51:21;1.75;;;1.40;;
79243;SDS011;68672;42.676;23.356;2023-04-25T10:56:25;2.33;;;1.50;;
79243;SDS011;68672;42.676;23.356;2023-04-25T10:58:52;2.45;;;1.60;;
79243;SDS011;68672;42.676;23.356;2023-04-25T11:01:49;1.85;;;1.63;;
79243;SDS011;68672;42.676;23.356;2023-04-25T11:04:30;2.63;;;1.50;;
79243;SDS011;68672;42.676;23.356;2023-04-25T11:07:06;3.75;;;1.63;;
79243;SDS011;68672;42.676;23.356;2023-04-25T11:09:38;1.73;;;1.17;;
79243;SDS011;68672;42.676;23.356;2023-04-25T11:12:06;2.70;;;1.38;;
79243;SDS011;68672;42.676;23.356;2023-04-25T11:14:36;4.00;;;1.40;;
79243;SDS011;68672;42.676;23.356;2023-04-25T11:17:04;2.85;;;1.38;;
79243;SDS011;68672;42.676;23.356;2023-04-25T11:19:31;1.90;;;1.70;;
79243;SDS011;68672;42.676;23.356;2023-04-25T11:21:57;2.30;;;1.48;;
79243;SDS011;68672;42.676;23.356;2023-04-25T11:24:30;2.50;;;1.60;;
79243;SDS011;68672;42.676;23.356;2023-04-25T11:27:00;3.30;;;1.70;;
79243;SDS011;68672;42.676;23.356;2023-04-25T11:29:27;3.00;;;1.80;;
79243;SDS011;68672;42.676;23.356;2023-04-25T11:34:26;2.85;;;1.70;;
79243;SDS011;68672;42.676;23.356;2023-04-25T11:39:20;2.85;;;1.92;;
79243;SDS011;68672;42.676;23.356;2023-04-25T11:41:46;5.43;;;2.83;;
79243;SDS011;68672;42.676;23.356;2023-04-25T11:44:12;4.20;;;2.45;;
79243;SDS011;68672;42.676;23.356;2023-04-25T11:49:11;1.98;;;1.58;;
79243;SDS011;68672;42.676;23.356;2023-04-25T11:51:43;1.20;;;1.05;;
79243;SDS011;68672;42.676;23.356;2023-04-25T11:54:11;1.38;;;0.90;;
79243;SDS011;68672;42.676;23.356;2023-04-25T11:56:37;1.02;;;0.80;;
79243;SDS011;68672;42.676;23.356;2023-04-25T11:59:05;2.13;;;1.35;;
79243;SDS011;68672;42.676;23.356;2023-04-25T12:01:31;1.90;;;1.35;;
79243;SDS011;68672;42.676;23.356;2023-04-25T12:04:11;4.10;;;1.15;;
79243;SDS011;68672;42.676;23.356;2023-04-25T12:06:47;1.60;;;1.25;;
79243;SDS011;68672;42.676;23.356;2023-04-25T12:09:14;1.80;;;1.35;;
79243;SDS011;68672;42.676;23.356;2023-04-25T12:11:46;1.13;;;0.90;;
79243;SDS011;68672;42.676;23.356;2023-04-25T12:14:20;1.25;;;0.80;;
79243;SDS011;68672;42.676;23.356;2023-04-25T12:16:51;0.95;;;0.77;;
79243;SDS011;68672;42.676;23.356;2023-04-25T12:19:19;1.67;;;1.10;;
79243;SDS011;68672;42.676;23.356;2023-04-25T12:21:45;1.45;;;1.00;;
79243;SDS011;68672;42.676;23.356;2023-04-25T12:24:15;1.25;;;0.95;;
79243;SDS011;68672;42.676;23.356;2023-04-25T12:26:59;2.08;;;1.55;;
79243;SDS011;68672;42.676;23.356;2023-04-25T12:29:25;1.20;;;0.90;;
79243;SDS011;68672;42.676;23.356;2023-04-25T12:31:53;1.85;;;1.35;;
79243;SDS011;68672;42.676;23.356;2023-04-25T12:34:19;1.48;;;1.10;;
79243;SDS011;68672;42.676;23.356;2023-04-25T12:36:46;2.03;;;1.02;;
79243;SDS011;68672;42.676;23.356;2023-04-25T12:39:18;3.33;;;1.38;;
79243;SDS011;68672;42.676;23.356;2023-04-25T12:41:45;2.38;;;1.38;;
79243;SDS011;68672;42.676;23.356;2023-04-25T12:44:12;2.72;;;1.73;;
79243;SDS011;68672;42.676;23.356;2023-04-25T12:46:38;4.88;;;1.42;;
79243;SDS011;68672;42.676;23.356;2023-04-25T12:49:04;1.85;;;1.30;;
79243;SDS011;68672;42.676;23.356;2023-04-25T12:51:33;2.72;;;1.95;;
79243;SDS011;68672;42.676;23.356;2023-04-25T12:53:59;2.92;;;1.58;;
79243;SDS011;68672;42.676;23.356;2023-04-25T12:56:28;3.08;;;1.45;;
79243;SDS011;68672;42.676;23.356;2023-04-25T12:58:54;1.67;;;1.10;;
79243;SDS011;68672;42.676;23.356;2023-04-25T13:01:22;1.95;;;1.27;;
79243;SDS011;68672;42.676;23.356;2023-04-25T13:03:48;1.42;;;1.02;;
79243;SDS011;68672;42.676;23.356;2023-04-25T13:06:19;2.80;;;1.40;;
79243;SDS011;68672;42.676;23.356;2023-04-25T13:08:45;1.60;;;1.02;;
79243;SDS011;68672;42.676;23.356;2023-04-25T13:11:11;4.53;;;1.55;;
79243;SDS011;68672;42.676;23.356;2023-04-25T13:13:36;1.30;;;1.17;;
79243;SDS011;68672;42.676;23.356;2023-04-25T13:16:02;1.77;;;1.30;;
79243;SDS011;68672;42.676;23.356;2023-04-25T13:18:29;2.45;;;1.70;;
79243;SDS011;68672;42.676;23.356;2023-04-25T13:20:55;1.17;;;0.98;;
79243;SDS011;68672;42.676;23.356;2023-04-25T13:23:21;2.42;;;1.60;;
79243;SDS011;68672;42.676;23.356;2023-04-25T13:28:16;1.42;;;1.15;;
79243;SDS011;68672;42.676;23.356;2023-04-25T13:30:45;3.58;;;1.70;;
79243;SDS011;68672;42.676;23.356;2023-04-25T13:33:10;4.30;;;1.85;;
79243;SDS011;68672;42.676;23.356;2023-04-25T13:35:37;2.38;;;1.65;;
79243;SDS011;68672;42.676;23.356;2023-04-25T13:38:03;3.35;;;1.98;;
79243;SDS011;68672;42.676;23.356;2023-04-25T13:40:28;3.13;;;1.60;;
79243;SDS011;68672;42.676;23.356;2023-04-25T13:42:55;2.90;;;1.77;;
79243;SDS011;68672;42.676;23.356;2023-04-25T13:45:21;2.28;;;1.85;;
79243;SDS011;68672;42.676;23.356;2023-04-25T13:47:49;2.33;;;1.73;;
79243;SDS011;68672;42.676;23.356;2023-04-25T13:50:15;2.78;;;1.73;;
79243;SDS011;68672;42.676;23.356;2023-04-25T13:52:49;1.80;;;1.40;;
79243;SDS011;68672;42.676;23.356;2023-04-25T13:55:15;2.47;;;1.55;;
79243;SDS011;68672;42.676;23.356;2023-04-25T13:57:40;3.30;;;1.85;;
79243;SDS011;68672;42.676;23.356;2023-04-25T14:00:06;2.55;;;1.77;;
79243;SDS011;68672;42.676;23.356;2023-04-25T14:02:34;2.40;;;2.00;;
79243;SDS011;68672;42.676;23.356;2023-04-25T14:05:00;4.13;;;1.98;;
79243;SDS011;68672;42.676;23.356;2023-04-25T14:07:26;3.05;;;2.35;;
79243;SDS011;68672;42.676;23.356;2023-04-25T14:09:51;3.80;;;1.90;;
79243;SDS011;68672;42.676;23.356;2023-04-25T14:12:23;3.15;;;2.00;;
79243;SDS011;68672;42.676;23.356;2023-04-25T14:14:51;2.88;;;1.88;;
79243;SDS011;68672;42.676;23.356;2023-04-25T14:17:20;2.55;;;1.60;;
79243;SDS011;68672;42.676;23.356;2023-04-25T14:19:46;2.80;;;1.73;;
79243;SDS011;68672;42.676;23.356;2023-04-25T14:22:13;3.13;;;2.28;;
79243;SDS011;68672;42.676;23.356;2023-04-25T14:24:41;1.85;;;1.40;;
79243;SDS011;68672;42.676;23.356;2023-04-25T14:27:07;2.47;;;1.60;;
79243;SDS011;68672;42.676;23.356;2023-04-25T14:29:32;2.13;;;1.50;;
79243;SDS011;68672;42.676;23.356;2023-04-25T14:31:58;1.73;;;1.23;;
79243;SDS011;68672;42.676;23.356;2023-04-25T14:34:24;1.77;;;1.30;;
79243;SDS011;68672;42.676;23.356;2023-04-25T14:36:50;1.98;;;1.60;;
79243;SDS011;68672;42.676;23.356;2023-04-25T14:39:17;1.65;;;1.30;;
79243;SDS011;68672;42.676;23.356;2023-04-25T14:41:43;2.13;;;1.35;;
79243;SDS011;68672;42.676;23.356;2023-04-25T14:44:08;2.05;;;1.30;;
79243;SDS011;68672;42.676;23.356;2023-04-25T14:46:34;2.35;;;1.73;;
79243;SDS011;68672;42.676;23.356;2023-04-25T14:49:00;2.65;;;1.63;;
79243;SDS011;68672;42.676;23.356;2023-04-25T14:51:25;2.28;;;1.67;;
79243;SDS011;68672;42.676;23.356;2023-04-25T14:53:51;2.55;;;1.40;;
79243;SDS011;68672;42.676;23.356;2023-04-25T14:56:17;1.95;;;1.50;;
79243;SDS011;68672;42.676;23.356;2023-04-25T14:58:43;2.13;;;1.52;;
79243;SDS011;68672;42.676;23.356;2023-04-25T15:01:09;1.85;;;1.55;;
79243;SDS011;68672;42.676;23.356;2023-04-25T15:03:37;5.13;;;3.40;;
79243;SDS011;68672;42.676;23.356;2023-04-25T15:06:03;1.85;;;1.33;;
79243;SDS011;68672;42.676;23.356;2023-04-25T15:08:31;2.20;;;1.27;;
79243;SDS011;68672;42.676;23.356;2023-04-25T15:10:57;1.88;;;1.35;;
79243;SDS011;68672;42.676;23.356;2023-04-25T15:13:22;1.90;;;1.30;;